Time;durP1;ratioP1;P1;durP2;ratioP2;P2;SDS_P1;SDS_P2;PMS_P1;PMS_P2;Temp;Humidity;BMP_temperature;BMP_pressure;BME280_temperature;BME280_humidity;BME280_pressure;Samples;Min_cycle;Max_cycle;Signal;HPM_P1;HPM_P2
2021/11/12 00:04:15;;;;;;;18.40;7.70;;;8.30;99.90;;;;;;5014489;28;20505;-68
2021/11/12 00:14:49;;;;;;;21.27;8.90;;;8.10;99.90;;;;;;5014186;28;20992;-68
2021/11/12 00:17:19;;;;;;;20.17;7.57;;;8.20;99.90;;;;;;5014322;28;20432;-68
2021/11/12 00:19:46;;;;;;;17.93;9.00;;;8.20;99.90;;;;;;5013625;28;20415;-68
2021/11/12 00:22:12;;;;;;;17.00;9.43;;;8.30;99.90;;;;;;5014077;28;20423;-68
2021/11/12 00:24:38;;;;;;;14.83;8.60;;;8.10;99.90;;;;;;5013895;28;20447;-68
2021/11/12 00:27:05;;;;;;;15.53;8.67;;;8.20;99.90;;;;;;5014069;28;20475;-68
2021/11/12 00:29:47;;;;;;;14.57;8.13;;;8.30;99.90;;;;;;5013818;28;20196;-68
2021/11/12 00:32:30;;;;;;;17.20;8.00;;;8.30;99.90;;;;;;5014198;28;20487;-70
2021/11/12 00:35:05;;;;;;;14.93;7.40;;;8.30;99.90;;;;;;5013888;28;20419;-70
2021/11/12 00:40:36;;;;;;;12.77;6.73;;;8.20;99.90;;;;;;5013971;28;20435;-69
2021/11/12 00:45:33;;;;;;;13.73;7.50;;;8.20;99.90;;;;;;5013598;28;20820;-69
2021/11/12 00:48:22;;;;;;;14.43;7.53;;;8.20;99.90;;;;;;5013736;28;20640;-68
2021/11/12 00:55:41;;;;;;;23.43;10.77;;;8.40;99.90;;;;;;5013707;28;20407;-69
2021/11/12 00:58:10;;;;;;;14.03;6.83;;;8.40;99.90;;;;;;5012517;28;20835;-68
2021/11/12 01:00:36;;;;;;;19.47;8.50;;;8.30;99.90;;;;;;5013342;28;20508;-69
2021/11/12 01:03:02;;;;;;;11.83;7.40;;;8.40;99.90;;;;;;5013489;28;20410;-69
2021/11/12 01:05:30;;;;;;;12.90;8.07;;;8.30;99.90;;;;;;5012049;28;20535;-68
2021/11/12 01:07:56;;;;;;;12.70;6.37;;;8.30;99.90;;;;;;5013505;28;20441;-68
2021/11/12 01:10:21;;;;;;;17.07;8.50;;;8.40;99.90;;;;;;5013144;28;20428;-69
2021/11/12 01:12:47;;;;;;;19.93;8.63;;;8.30;99.90;;;;;;5013179;28;20412;-68
2021/11/12 01:15:17;;;;;;;13.67;7.73;;;8.20;99.90;;;;;;5012995;28;20173;-68
2021/11/12 01:17:44;;;;;;;14.80;8.00;;;8.20;99.90;;;;;;5013362;28;20188;-68
2021/11/12 01:20:12;;;;;;;13.47;5.97;;;8.40;99.90;;;;;;5013048;28;20432;-68
2021/11/12 01:22:38;;;;;;;21.17;9.70;;;8.40;99.90;;;;;;5013203;28;20477;-68
2021/11/12 01:25:06;;;;;;;15.83;8.40;;;8.40;99.90;;;;;;5012860;28;20496;-69
2021/11/12 01:27:34;;;;;;;17.13;7.37;;;8.40;99.90;;;;;;5012919;28;20454;-69
2021/11/12 01:30:00;;;;;;;16.53;9.27;;;8.40;99.90;;;;;;5012584;28;20978;-68
2021/11/12 01:32:26;;;;;;;14.50;8.83;;;8.40;99.90;;;;;;5010968;28;20414;-68
2021/11/12 01:34:55;;;;;;;15.30;8.37;;;8.30;99.90;;;;;;5012875;28;20556;-68
2021/11/12 01:37:22;;;;;;;13.43;6.40;;;8.30;99.90;;;;;;5012926;28;20400;-68
2021/11/12 01:39:54;;;;;;;12.70;8.70;;;8.40;99.90;;;;;;5012589;28;20427;-68
2021/11/12 01:42:25;;;;;;;15.80;7.50;;;8.30;99.90;;;;;;5012582;28;20397;-68
2021/11/12 01:44:55;;;;;;;18.67;9.17;;;8.30;99.90;;;;;;5012851;28;20441;-68
2021/11/12 01:47:38;;;;;;;14.50;7.80;;;8.30;99.90;;;;;;5012577;28;20404;-69
2021/11/12 01:50:09;;;;;;;16.67;7.70;;;8.40;99.90;;;;;;5012470;28;20427;-69
2021/11/12 01:52:40;;;;;;;18.03;6.90;;;8.40;99.90;;;;;;5012514;28;20400;-70
2021/11/12 01:55:12;;;;;;;13.80;6.63;;;8.50;99.90;;;;;;5012376;28;20435;-69
2021/11/12 01:57:56;;;;;;;12.03;6.23;;;8.40;99.90;;;;;;5012632;28;20441;-69
2021/11/12 02:00:24;;;;;;;14.70;6.47;;;8.40;99.90;;;;;;5012311;28;20993;-69
2021/11/12 02:02:51;;;;;;;12.23;6.90;;;8.30;99.90;;;;;;5012492;28;20826;-69
2021/11/12 02:05:17;;;;;;;11.80;6.87;;;8.30;99.90;;;;;;5012209;28;20459;-68
2021/11/12 02:07:44;;;;;;;13.93;6.57;;;8.30;99.90;;;;;;5012321;28;20416;-68
2021/11/12 02:10:14;;;;;;;13.80;8.80;;;8.40;99.90;;;;;;5012248;28;20423;-70
2021/11/12 02:13:01;;;;;;;11.40;6.40;;;8.50;99.90;;;;;;5012450;28;20454;-70
2021/11/12 02:15:27;;;;;;;10.30;6.80;;;8.50;99.90;;;;;;5012359;28;20785;-69
2021/11/12 02:18:03;;;;;;;16.40;7.50;;;8.50;99.90;;;;;;5012639;28;20472;-68
2021/11/12 02:20:38;;;;;;;15.20;7.03;;;8.40;99.90;;;;;;5010543;28;20970;-69
2021/11/12 02:23:04;;;;;;;17.47;6.83;;;8.40;99.90;;;;;;5012199;28;20404;-69
2021/11/12 02:25:37;;;;;;;15.10;6.07;;;8.30;99.90;;;;;;5011928;28;20452;-69
2021/11/12 02:28:07;;;;;;;12.10;6.63;;;8.30;99.90;;;;;;5012165;28;20543;-69
2021/11/12 02:30:34;;;;;;;11.90;7.07;;;8.30;99.90;;;;;;5018095;28;20471;-70
2021/11/12 02:33:21;;;;;;;14.83;6.43;;;8.40;99.90;;;;;;5032152;28;20410;-70
2021/11/12 02:36:05;;;;;;;12.60;6.10;;;8.40;99.90;;;;;;5023583;28;20966;-68
2021/11/12 02:38:34;;;;;;;17.13;7.43;;;8.50;99.90;;;;;;5031892;28;20614;-68
2021/11/12 02:41:00;;;;;;;14.20;6.17;;;8.40;99.90;;;;;;5031863;28;20414;-68
2021/11/12 02:43:27;;;;;;;14.13;6.87;;;8.40;99.90;;;;;;5034759;28;20419;-68
2021/11/12 02:45:54;;;;;;;13.73;7.37;;;8.50;99.90;;;;;;5035788;28;20468;-69
2021/11/12 02:48:19;;;;;;;12.30;6.27;;;8.50;99.90;;;;;;5035660;28;20974;-69
2021/11/12 02:50:46;;;;;;;13.07;8.07;;;8.50;99.90;;;;;;5035727;28;20490;-69
2021/11/12 02:53:14;;;;;;;13.00;7.27;;;8.40;99.90;;;;;;5035747;28;20169;-69
2021/11/12 02:55:40;;;;;;;14.23;6.50;;;8.40;99.90;;;;;;5035768;28;20913;-69
2021/11/12 02:58:06;;;;;;;14.93;5.90;;;8.40;99.90;;;;;;5035567;28;20402;-68
2021/11/12 03:00:32;;;;;;;11.17;6.37;;;8.40;99.90;;;;;;5035357;28;20473;-68
2021/11/12 03:02:57;;;;;;;11.77;6.23;;;8.30;99.90;;;;;;5035640;28;20172;-68
2021/11/12 03:05:23;;;;;;;18.17;9.43;;;8.40;99.90;;;;;;5033962;28;20622;-69
2021/11/12 03:07:49;;;;;;;12.43;4.87;;;8.50;99.90;;;;;;5034142;28;20168;-68
2021/11/12 03:10:15;;;;;;;13.00;6.87;;;8.60;99.90;;;;;;5035270;28;20188;-69
2021/11/12 03:12:42;;;;;;;15.73;7.53;;;8.50;99.90;;;;;;5035281;28;20552;-68
2021/11/12 03:15:10;;;;;;;12.97;5.80;;;8.50;99.90;;;;;;5035035;28;20433;-68
2021/11/12 03:17:36;;;;;;;13.83;7.27;;;8.50;99.90;;;;;;5035325;28;20429;-69
2021/11/12 03:20:05;;;;;;;14.23;6.63;;;8.50;99.90;;;;;;5035006;28;20447;-69
2021/11/12 03:22:37;;;;;;;16.83;8.07;;;8.40;99.90;;;;;;5035114;28;20481;-68
2021/11/12 03:25:08;;;;;;;12.03;6.43;;;8.40;99.90;;;;;;5035008;28;20446;-69
2021/11/12 03:27:45;;;;;;;13.87;6.60;;;8.40;99.90;;;;;;5034914;28;20408;-69
2021/11/12 03:30:49;;;;;;;14.70;6.67;;;8.40;99.90;;;;;;5034886;28;20423;-69
2021/11/12 03:56:30;;;;;;;11.77;6.37;;;8.40;99.90;;;;;;5033565;28;20587;-68
2021/11/12 04:01:31;;;;;;;8.20;7.00;;;8.50;99.90;;;;;;5034309;28;20814;-68
2021/11/12 04:03:34;;;;;;;20.03;6.67;;;8.60;99.90;;;;;;5033876;28;20430;-68
2021/11/12 04:06:16;;;;;;;13.10;6.17;;;8.60;99.90;;;;;;5034410;28;20406;-68
2021/11/12 04:19:43;;;;;;;16.70;7.37;;;8.40;99.90;;;;;;5034220;28;20541;-70
2021/11/12 04:22:19;;;;;;;9.23;5.60;;;8.40;99.90;;;;;;5033967;28;20409;-67
2021/11/12 04:41:35;;;;;;;12.80;6.60;;;8.40;99.90;;;;;;5033958;28;20518;-68
2021/11/12 05:11:49;;;;;;;13.17;5.53;;;8.60;99.90;;;;;;5032996;28;21037;-68
2021/11/12 05:45:08;;;;;;;15.60;9.30;;;8.50;99.90;;;;;;5032296;28;20496;-68
2021/11/12 05:50:35;;;;;;;11.77;7.60;;;8.50;99.90;;;;;;5032649;28;20420;-69
2021/11/12 05:55:45;;;;;;;12.80;6.57;;;8.60;99.90;;;;;;5032396;28;20486;-69
2021/11/12 05:58:10;;;;;;;15.43;7.70;;;8.60;99.90;;;;;;5031201;28;20498;-68
2021/11/12 06:00:36;;;;;;;19.27;8.30;;;8.60;99.90;;;;;;5032088;28;20193;-70
2021/11/12 06:03:02;;;;;;;17.73;7.63;;;8.60;99.90;;;;;;5032190;28;20325;-69
2021/11/12 06:05:27;;;;;;;16.30;7.33;;;8.60;99.90;;;;;;5032042;28;20207;-69
2021/11/12 06:07:53;;;;;;;23.50;7.43;;;8.60;99.90;;;;;;5032115;28;20389;-69
2021/11/12 06:10:18;;;;;;;14.50;6.37;;;8.60;99.90;;;;;;5031776;28;20183;-69
2021/11/12 06:12:45;;;;;;;21.07;9.40;;;8.60;99.90;;;;;;5031951;28;20235;-68
2021/11/12 06:15:10;;;;;;;16.57;7.03;;;8.50;99.90;;;;;;5031939;28;20175;-70
2021/11/12 06:17:36;;;;;;;19.03;6.97;;;8.40;99.90;;;;;;5031332;28;20510;-68
2021/11/12 06:20:02;;;;;;;26.00;9.80;;;8.40;99.90;;;;;;5031806;28;20655;-69
2021/11/12 06:22:29;;;;;;;13.43;5.93;;;8.40;99.90;;;;;;5031944;28;20229;-69
2021/11/12 06:24:55;;;;;;;17.27;7.33;;;8.40;99.90;;;;;;5030256;28;20533;-70
2021/11/12 06:27:20;;;;;;;21.83;7.83;;;8.30;99.90;;;;;;5032088;28;20817;-69
2021/11/12 06:29:46;;;;;;;17.37;6.00;;;8.30;99.90;;;;;;5031639;28;20446;-69
2021/11/12 06:32:12;;;;;;;16.43;7.47;;;8.40;99.90;;;;;;5031808;28;20210;-69
2021/11/12 06:34:37;;;;;;;18.50;7.67;;;8.40;99.90;;;;;;5031652;28;20179;-69
2021/11/12 06:37:03;;;;;;;22.43;9.10;;;8.40;99.90;;;;;;5031688;28;20681;-69
2021/11/12 06:39:29;;;;;;;19.37;7.97;;;8.30;99.90;;;;;;5031219;28;20208;-69
2021/11/12 06:41:57;;;;;;;14.97;7.03;;;8.30;99.90;;;;;;5031790;28;20412;-69
2021/11/12 06:50:16;;;;;;;25.93;8.47;;;8.30;99.90;;;;;;5031346;28;20792;-68
2021/11/12 06:52:44;;;;;;;18.03;8.17;;;8.20;99.90;;;;;;5031391;28;20403;-68
2021/11/12 06:55:12;;;;;;;13.80;8.43;;;8.30;99.90;;;;;;5031735;28;20401;-68
2021/11/12 06:57:39;;;;;;;16.40;6.37;;;8.30;99.90;;;;;;5031397;28;20437;-69
2021/11/12 07:00:13;;;;;;;11.77;5.93;;;8.30;99.90;;;;;;5031197;28;20519;-68
2021/11/12 07:02:40;;;;;;;14.77;6.90;;;8.40;99.90;;;;;;5031593;28;20452;-68
2021/11/12 07:05:06;;;;;;;24.50;8.40;;;8.30;99.90;;;;;;5031404;28;20451;-68
2021/11/12 07:07:31;;;;;;;16.30;8.20;;;8.40;99.90;;;;;;5031707;28;20500;-68
2021/11/12 07:09:57;;;;;;;17.37;8.03;;;8.30;99.90;;;;;;5027808;28;20524;-68
2021/11/12 07:12:23;;;;;;;15.73;7.80;;;8.30;99.90;;;;;;5030991;28;20152;-69
2021/11/12 07:14:49;;;;;;;21.50;6.67;;;8.30;99.90;;;;;;5031181;28;20592;-69
2021/11/12 07:17:15;;;;;;;22.90;9.60;;;8.30;99.90;;;;;;5031340;28;20905;-69
2021/11/12 07:19:41;;;;;;;21.17;8.50;;;8.30;99.90;;;;;;5031074;28;20433;-70
2021/11/12 07:22:09;;;;;;;15.00;6.70;;;8.30;99.90;;;;;;5031604;28;20173;-69
2021/11/12 07:24:41;;;;;;;25.67;9.70;;;8.40;99.90;;;;;;5029865;28;20458;-68
2021/11/12 07:27:08;;;;;;;20.47;8.20;;;8.30;99.90;;;;;;5031764;28;20407;-68
2021/11/12 07:29:36;;;;;;;22.80;10.07;;;8.20;99.90;;;;;;5027369;28;21007;-67
2021/11/12 07:32:04;;;;;;;20.80;8.57;;;8.20;99.90;;;;;;5026983;28;20752;-68
2021/11/12 07:34:29;;;;;;;19.30;7.10;;;8.20;99.90;;;;;;5015953;28;20419;-68
2021/11/12 07:37:11;;;;;;;16.33;7.07;;;8.20;99.90;;;;;;5014932;28;20450;-69
2021/11/12 07:39:48;;;;;;;20.30;8.33;;;8.20;99.90;;;;;;5015729;28;20192;-70
2021/11/12 07:45:52;;;;;;;21.57;8.23;;;8.30;99.90;;;;;;5020405;28;20840;-70
2021/11/12 07:48:06;;;;;;;16.77;7.33;;;8.30;99.90;;;;;;5016374;28;20465;-72
2021/11/12 07:50:34;;;;;;;21.47;11.23;;;8.30;99.90;;;;;;5013724;28;20862;-68
2021/11/12 07:53:00;;;;;;;21.40;12.03;;;8.40;99.90;;;;;;5014865;28;20251;-69
2021/11/12 07:55:26;;;;;;;18.50;8.83;;;8.50;99.90;;;;;;5014605;28;20406;-70
2021/11/12 07:57:52;;;;;;;17.00;8.90;;;8.50;99.90;;;;;;5014765;28;20498;-68
2021/11/12 08:00:18;;;;;;;17.10;8.20;;;8.50;99.90;;;;;;5032318;28;20518;-69
2021/11/12 08:02:43;;;;;;;15.33;7.70;;;8.50;99.90;;;;;;5034181;28;20543;-70
2021/11/12 08:05:15;;;;;;;20.77;9.10;;;8.50;99.90;;;;;;5033030;28;20197;-68
2021/11/12 08:07:41;;;;;;;23.63;9.60;;;8.40;99.90;;;;;;5034505;28;20179;-68
2021/11/12 08:10:10;;;;;;;16.67;7.83;;;8.40;99.90;;;;;;5034185;28;20417;-69
2021/11/12 08:12:39;;;;;;;20.40;9.40;;;8.30;99.90;;;;;;5034275;28;20403;-69
2021/11/12 08:15:28;;;;;;;20.07;6.57;;;8.30;99.90;;;;;;5034038;28;20481;-69
2021/11/12 08:18:07;;;;;;;20.20;9.03;;;8.30;99.90;;;;;;5033902;28;20476;-68
2021/11/12 08:20:40;;;;;;;19.80;7.97;;;8.30;99.90;;;;;;5033948;28;20788;-69
2021/11/12 08:23:21;;;;;;;23.30;8.37;;;8.40;99.90;;;;;;5034084;28;20472;-70
2021/11/12 08:26:04;;;;;;;20.63;8.30;;;8.30;99.90;;;;;;5033890;28;20411;-69
2021/11/12 08:28:58;;;;;;;17.20;7.83;;;8.40;99.90;;;;;;5033883;28;20410;-68
2021/11/12 08:33:53;;;;;;;15.67;7.37;;;8.50;99.90;;;;;;5033410;28;20493;-68
2021/11/12 08:36:39;;;;;;;15.00;7.70;;;8.30;99.90;;;;;;5015153;28;20193;-70
2021/11/12 08:39:28;;;;;;;15.80;6.17;;;8.40;99.90;;;;;;5027673;28;20438;-70
2021/11/12 08:42:01;;;;;;;19.70;9.17;;;8.40;99.90;;;;;;5027930;28;20424;-69
2021/11/12 08:44:33;;;;;;;24.40;10.57;;;8.40;99.90;;;;;;5033390;28;20454;-70
2021/11/12 08:47:08;;;;;;;11.20;8.50;;;8.30;99.90;;;;;;5033709;28;20402;-69
2021/11/12 08:49:36;;;;;;;11.33;5.93;;;8.30;99.90;;;;;;5033496;28;20459;-69
2021/11/12 08:52:04;;;;;;;14.77;7.13;;;8.40;99.90;;;;;;5033350;28;20468;-69
2021/11/12 08:54:36;;;;;;;11.83;6.20;;;8.40;99.90;;;;;;5033405;28;20424;-69
2021/11/12 08:57:06;;;;;;;19.70;7.10;;;8.40;99.90;;;;;;5033531;28;20473;-69
2021/11/12 08:59:32;;;;;;;21.47;10.83;;;8.50;99.90;;;;;;5031985;28;20904;-69
2021/11/12 09:01:59;;;;;;;18.20;7.27;;;8.60;99.90;;;;;;5033444;28;20422;-68
2021/11/12 09:04:25;;;;;;;21.50;7.80;;;8.80;99.90;;;;;;5033064;28;20481;-70
2021/11/12 09:06:51;;;;;;;17.67;7.93;;;8.70;99.90;;;;;;5032944;28;20423;-68
2021/11/12 09:09:17;;;;;;;16.00;7.03;;;8.60;99.90;;;;;;5032954;28;20636;-69
2021/11/12 09:11:43;;;;;;;23.80;11.00;;;8.70;99.90;;;;;;5031603;28;20185;-68
2021/11/12 09:14:14;;;;;;;16.60;8.23;;;8.80;99.90;;;;;;5032767;28;20415;-69
2021/11/12 09:16:44;;;;;;;25.13;9.07;;;8.90;99.90;;;;;;5033116;28;20464;-69
2021/11/12 09:19:10;;;;;;;11.67;7.43;;;8.90;99.90;;;;;;5033204;28;20870;-68
2021/11/12 09:21:36;;;;;;;21.93;7.63;;;9.10;99.90;;;;;;5032885;28;20759;-69
2021/11/12 09:24:02;;;;;;;15.47;7.30;;;9.20;99.90;;;;;;5032529;28;20515;-68
2021/11/12 09:26:28;;;;;;;13.93;8.00;;;9.30;99.90;;;;;;5032552;28;20230;-68
2021/11/12 09:28:54;;;;;;;12.27;7.43;;;9.20;99.90;;;;;;5032396;28;20467;-68
2021/11/12 09:31:20;;;;;;;12.80;6.70;;;9.30;99.90;;;;;;5032244;28;20512;-68
2021/11/12 09:33:46;;;;;;;11.73;7.33;;;9.20;99.90;;;;;;5032194;28;20168;-69
2021/11/12 09:36:12;;;;;;;11.57;5.50;;;9.20;99.90;;;;;;5032546;28;20406;-68
2021/11/12 09:38:40;;;;;;;15.57;6.63;;;9.20;99.90;;;;;;5031115;28;20237;-68
2021/11/12 09:41:07;;;;;;;12.47;7.07;;;9.30;99.90;;;;;;5032386;28;20163;-69
2021/11/12 09:43:32;;;;;;;12.43;6.37;;;9.50;99.90;;;;;;5032130;28;20480;-69
2021/11/12 09:45:58;;;;;;;15.73;5.63;;;9.60;99.90;;;;;;5032394;28;20398;-67
2021/11/12 09:48:27;;;;;;;15.27;7.30;;;9.70;99.90;;;;;;5032433;28;20168;-67
2021/11/12 09:50:52;;;;;;;16.00;8.17;;;9.90;99.90;;;;;;5030928;28;20406;-70
2021/11/12 09:53:19;;;;;;;15.03;8.17;;;9.70;99.90;;;;;;5031949;28;20414;-68
2021/11/12 09:55:45;;;;;;;13.50;5.80;;;9.60;99.90;;;;;;5032446;28;20167;-67
2021/11/12 09:58:12;;;;;;;15.60;7.10;;;9.60;99.90;;;;;;5032399;28;20406;-68
2021/11/12 10:00:39;;;;;;;11.93;7.40;;;9.60;99.90;;;;;;5032335;28;20800;-69
2021/11/12 10:03:08;;;;;;;14.40;8.50;;;9.50;99.90;;;;;;5032341;28;20409;-71
2021/11/12 10:05:46;;;;;;;13.63;5.90;;;9.60;99.90;;;;;;5032141;28;20458;-70
2021/11/12 10:08:36;;;;;;;12.97;6.23;;;9.70;99.90;;;;;;5032286;28;20485;-69
2021/11/12 10:11:19;;;;;;;6.97;5.63;;;9.60;99.90;;;;;;5032219;28;20399;-69
2021/11/12 10:13:46;;;;;;;10.40;6.07;;;9.50;99.90;;;;;;5031910;28;20406;-69
2021/11/12 10:19:12;;;;;;;13.83;6.00;;;9.60;99.90;;;;;;5031914;28;20460;-68
2021/11/12 10:21:41;;;;;;;11.00;5.73;;;9.70;99.90;;;;;;5031944;28;20399;-68
2021/11/12 10:24:15;;;;;;;10.63;5.27;;;9.70;99.90;;;;;;5030664;28;20464;-68
2021/11/12 10:26:41;;;;;;;10.10;7.27;;;9.80;99.90;;;;;;5032292;28;20453;-69
2021/11/12 10:29:11;;;;;;;12.50;6.80;;;9.80;99.90;;;;;;5032051;28;20426;-69
2021/11/12 10:31:38;;;;;;;9.97;6.30;;;9.80;99.90;;;;;;5032018;28;20408;-69
2021/11/12 10:34:13;;;;;;;10.80;7.17;;;9.80;99.90;;;;;;5031654;28;20414;-70
2021/11/12 10:37:19;;;;;;;8.80;6.63;;;9.70;99.90;;;;;;5032361;28;20405;-69
2021/11/12 10:39:49;;;;;;;11.90;4.90;;;9.50;99.90;;;;;;5028376;28;20458;-69
2021/11/12 10:42:21;;;;;;;6.80;4.20;;;9.50;99.90;;;;;;5031650;28;20414;-68
2021/11/12 10:44:48;;;;;;;8.63;5.07;;;9.70;99.90;;;;;;5031495;28;20450;-69
2021/11/12 10:47:15;;;;;;;8.20;4.20;;;9.70;99.90;;;;;;5031574;28;20979;-69
2021/11/12 10:49:43;;;;;;;6.50;4.67;;;9.60;99.90;;;;;;5031623;28;20434;-72
2021/11/12 10:52:12;;;;;;;10.20;5.67;;;9.60;99.90;;;;;;5031427;28;20464;-71
2021/11/12 10:54:54;;;;;;;8.93;4.73;;;9.50;99.90;;;;;;5030994;28;20419;-73
2021/11/12 10:57:35;;;;;;;32.53;17.20;;;9.30;99.90;;;;;;5031530;28;20410;-71
2021/11/12 11:00:13;;;;;;;13.10;9.80;;;9.40;99.90;;;;;;5021127;28;20469;-70
2021/11/12 11:02:48;;;;;;;12.47;5.50;;;9.50;99.90;;;;;;5012065;28;20489;-70
2021/11/12 11:05:16;;;;;;;9.20;4.80;;;9.60;99.90;;;;;;5015455;28;20469;-68
2021/11/12 11:07:44;;;;;;;4.50;3.50;;;9.60;99.90;;;;;;5015657;28;20506;-68
2021/11/12 11:10:34;;;;;;;10.83;5.33;;;9.60;99.90;;;;;;5015339;28;20439;-68
2021/11/12 11:13:08;;;;;;;6.73;4.30;;;9.50;99.90;;;;;;5015561;28;20510;-68
2021/11/12 11:15:44;;;;;;;7.10;4.53;;;9.50;99.90;;;;;;5019845;28;20780;-68
2021/11/12 11:18:21;;;;;;;8.07;5.53;;;9.50;99.90;;;;;;5034999;28;20429;-67
2021/11/12 11:21:09;;;;;;;13.67;7.57;;;9.60;99.90;;;;;;5035151;28;20825;-66
2021/11/12 11:23:59;;;;;;;11.03;8.47;;;9.80;99.90;;;;;;5035059;28;20406;-67
2021/11/12 11:26:46;;;;;;;13.07;7.60;;;9.80;99.90;;;;;;5035030;28;20459;-68
2021/11/12 11:29:15;;;;;;;8.87;5.60;;;10.10;99.90;;;;;;5035025;28;20510;-70
2021/11/12 11:31:41;;;;;;;8.83;4.47;;;9.90;99.90;;;;;;5035031;28;20414;-69
2021/11/12 11:34:06;;;;;;;7.33;4.53;;;9.60;99.90;;;;;;5035188;28;20417;-69
2021/11/12 11:36:36;;;;;;;9.13;5.83;;;9.60;99.90;;;;;;5034552;28;20171;-70
2021/11/12 11:39:09;;;;;;;8.30;5.37;;;9.70;99.90;;;;;;5034061;28;20278;-67
2021/11/12 11:41:35;;;;;;;6.77;5.10;;;9.60;99.90;;;;;;5034717;28;20406;-70
2021/11/12 11:44:01;;;;;;;5.70;4.20;;;9.80;99.90;;;;;;5034743;28;20544;-68
2021/11/12 11:46:30;;;;;;;7.83;5.20;;;9.80;99.90;;;;;;5034329;28;20418;-68
2021/11/12 11:48:58;;;;;;;13.47;4.50;;;9.90;99.90;;;;;;5026014;28;20435;-68
2021/11/12 11:51:30;;;;;;;8.63;5.27;;;9.90;99.90;;;;;;5014910;28;20416;-69
2021/11/12 11:54:02;;;;;;;9.00;4.67;;;9.70;99.90;;;;;;5014533;28;20915;-68
2021/11/12 11:56:34;;;;;;;6.40;3.67;;;9.70;99.90;;;;;;5014961;28;20411;-68
2021/11/12 11:59:00;;;;;;;5.30;4.43;;;9.70;99.90;;;;;;5015037;28;20453;-69
2021/11/12 12:01:36;;;;;;;6.23;4.93;;;9.60;99.90;;;;;;5014911;28;20510;-69
2021/11/12 12:04:05;;;;;;;5.80;3.57;;;9.70;99.90;;;;;;5024777;28;20473;-69
2021/11/12 12:06:31;;;;;;;5.70;4.00;;;9.70;99.90;;;;;;5035241;28;20792;-70
2021/11/12 12:09:09;;;;;;;5.07;3.50;;;9.80;99.90;;;;;;5034350;28;20433;-69
2021/11/12 12:11:49;;;;;;;5.43;4.20;;;9.80;99.90;;;;;;5032182;28;20168;-69
2021/11/12 12:14:26;;;;;;;3.47;2.80;;;9.80;99.90;;;;;;5030297;28;20414;-69
2021/11/12 12:17:04;;;;;;;11.27;4.60;;;9.70;99.90;;;;;;5031701;28;20453;-70
2021/11/12 12:19:49;;;;;;;6.33;4.00;;;9.70;99.90;;;;;;5034603;28;20977;-69
2021/11/12 13:18:59;;;;;;;7.93;4.53;;;9.60;99.90;;;;;;5016163;28;20461;-73
2021/11/12 13:20:45;;;;;;;6.20;3.57;;;9.70;99.90;;;;;;5052683;28;20423;-71
2021/11/12 13:26:02;;;;;;;3.73;2.90;;;9.60;99.90;;;;;;5032468;28;20463;-70
2021/11/12 13:28:34;;;;;;;4.70;2.83;;;9.50;99.90;;;;;;5032658;28;20414;-70
2021/11/12 13:30:59;;;;;;;4.60;3.07;;;9.50;99.90;;;;;;5022910;28;20438;-70
2021/11/12 13:33:29;;;;;;;7.30;3.57;;;9.50;99.90;;;;;;5014123;28;20910;-70
2021/11/12 13:35:57;;;;;;;3.80;2.90;;;9.40;99.90;;;;;;5012630;28;20663;-71
2021/11/12 13:38:23;;;;;;;4.50;2.87;;;9.30;99.90;;;;;;5020430;28;20985;-71
2021/11/12 13:40:50;;;;;;;4.20;2.70;;;9.30;99.90;;;;;;5032249;28;20912;-71
2021/11/12 13:43:23;;;;;;;3.90;2.40;;;9.40;99.90;;;;;;5014569;28;20423;-70
2021/11/12 13:45:58;;;;;;;3.57;2.77;;;9.40;99.90;;;;;;5012647;28;20711;-73
2021/11/12 13:48:24;;;;;;;5.23;2.33;;;9.30;99.90;;;;;;5013363;28;20469;-70
2021/11/12 13:51:01;;;;;;;5.63;2.70;;;9.20;99.90;;;;;;5031296;28;20418;-70
2021/11/12 13:53:32;;;;;;;4.53;2.77;;;9.20;99.90;;;;;;5032043;28;20170;-72
2021/11/12 13:55:59;;;;;;;2.93;2.40;;;9.20;99.90;;;;;;5032240;28;20899;-70
2021/11/12 13:58:26;;;;;;;3.80;2.13;;;9.20;99.90;;;;;;5032487;28;20447;-71
2021/11/12 14:00:53;;;;;;;4.00;2.73;;;9.10;99.90;;;;;;5031506;28;20410;-70
2021/11/12 14:03:33;;;;;;;4.10;2.80;;;9.10;99.90;;;;;;5025380;28;20417;-70
2021/11/12 14:06:00;;;;;;;3.93;2.47;;;9.10;99.90;;;;;;5012561;28;20404;-71
2021/11/12 14:08:35;;;;;;;4.00;2.40;;;9.00;99.90;;;;;;5012166;28;20396;-70
2021/11/12 14:11:03;;;;;;;5.17;3.43;;;9.00;99.90;;;;;;5012242;28;20408;-71
2021/11/12 14:13:38;;;;;;;3.40;2.50;;;9.00;99.90;;;;;;5012109;28;20406;-71
2021/11/12 14:16:15;;;;;;;3.27;2.47;;;9.00;99.90;;;;;;5029393;28;20402;-70
2021/11/12 14:21:54;;;;;;;4.27;2.90;;;9.00;99.90;;;;;;5032141;28;20456;-71
2021/11/12 14:24:38;;;;;;;4.63;2.30;;;9.00;99.90;;;;;;5031392;28;20872;-71
2021/11/12 14:27:20;;;;;;;3.97;2.60;;;9.00;99.90;;;;;;5012392;28;20974;-71
2021/11/12 14:40:40;;;;;;;5.70;3.47;;;8.90;99.90;;;;;;5031598;28;20509;-71
2021/11/12 14:43:18;;;;;;;6.00;2.93;;;8.80;99.90;;;;;;5030801;28;20861;-70
2021/11/12 14:45:57;;;;;;;6.10;5.07;;;8.80;99.90;;;;;;5031510;28;20996;-70
2021/11/12 14:48:29;;;;;;;6.77;3.77;;;8.80;99.90;;;;;;5031484;28;20407;-71
2021/11/12 14:51:07;;;;;;;4.70;3.13;;;8.70;99.90;;;;;;5015453;28;20422;-71
2021/11/12 14:56:16;;;;;;;5.87;4.50;;;8.70;99.90;;;;;;5011899;28;20408;-71
2021/11/12 14:58:48;;;;;;;4.13;3.33;;;8.70;99.90;;;;;;5011865;28;20427;-70
2021/11/12 15:01:16;;;;;;;5.90;3.73;;;8.70;99.90;;;;;;5012030;28;20906;-70
2021/11/12 15:03:43;;;;;;;5.83;3.40;;;8.60;99.90;;;;;;5011685;28;20466;-72
2021/11/12 15:06:18;;;;;;;5.73;3.80;;;8.60;99.90;;;;;;5022063;28;20440;-71
2021/11/12 15:08:52;;;;;;;6.60;3.93;;;8.60;99.90;;;;;;5025787;28;20433;-69
2021/11/12 15:11:22;;;;;;;6.37;3.90;;;8.60;99.90;;;;;;5030730;28;20410;-70
2021/11/12 15:13:49;;;;;;;5.00;4.23;;;8.50;99.90;;;;;;5011390;28;20486;-71
2021/11/12 15:16:27;;;;;;;7.47;3.60;;;8.60;99.90;;;;;;5030060;28;20419;-71
2021/11/12 15:18:59;;;;;;;6.00;3.60;;;8.60;99.90;;;;;;5030486;28;20446;-71
2021/11/12 15:24:06;;;;;;;10.07;5.50;;;8.50;99.90;;;;;;5030163;28;20553;-71
2021/11/12 15:26:48;;;;;;;10.57;4.40;;;8.50;99.90;;;;;;5031064;28;20565;-71
2021/11/12 15:34:12;;;;;;;6.70;3.80;;;8.40;99.90;;;;;;5021222;28;20428;-70
2021/11/12 15:36:43;;;;;;;8.07;5.03;;;8.50;99.90;;;;;;5029766;28;20180;-71
2021/11/12 15:39:15;;;;;;;5.00;3.97;;;8.40;99.90;;;;;;5029566;28;20457;-70
2021/11/12 15:44:34;;;;;;;6.27;4.60;;;8.40;99.90;;;;;;5029012;28;20449;-72
2021/11/12 15:50:06;;;;;;;5.67;3.60;;;8.50;99.90;;;;;;4993116;28;20441;-71
2021/11/12 15:52:44;;;;;;;7.90;5.03;;;8.50;99.90;;;;;;5033601;28;20424;-74
2021/11/12 15:55:22;;;;;;;8.57;6.07;;;8.50;99.90;;;;;;5034660;28;20409;-75
2021/11/12 16:00:32;;;;;;;8.33;4.20;;;8.50;99.90;;;;;;5033829;28;20760;-72
2021/11/12 16:03:25;;;;;;;7.20;4.43;;;8.40;99.90;;;;;;5030326;28;20459;-71
2021/11/12 16:06:08;;;;;;;8.70;5.40;;;8.40;99.90;;;;;;5032349;28;20471;-71
2021/11/12 16:08:48;;;;;;;6.53;4.00;;;8.40;99.90;;;;;;5028418;28;20462;-71
2021/11/12 16:11:21;;;;;;;6.80;4.40;;;8.40;99.90;;;;;;5034098;28;20434;-70
2021/11/12 16:14:02;;;;;;;8.10;4.30;;;8.50;99.90;;;;;;5031400;28;20797;-70
2021/11/12 16:16:57;;;;;;;7.10;4.03;;;8.60;99.90;;;;;;5029902;28;20466;-69
2021/11/12 16:27:13;;;;;;;7.10;4.37;;;8.40;99.90;;;;;;5028891;28;20907;-70
2021/11/12 16:32:11;;;;;;;5.13;4.63;;;8.40;99.90;;;;;;5032513;28;20751;-70
2021/11/12 16:34:49;;;;;;;6.20;3.90;;;8.40;99.90;;;;;;5032093;28;20829;-70
2021/11/12 16:37:17;;;;;;;11.90;5.47;;;8.50;99.90;;;;;;5027780;28;20448;-71
2021/11/12 16:39:54;;;;;;;11.43;4.13;;;8.40;99.90;;;;;;5031054;28;20453;-70
2021/11/12 16:42:37;;;;;;;7.23;4.30;;;8.40;99.90;;;;;;5031902;28;20423;-70
2021/11/12 16:45:16;;;;;;;6.80;4.47;;;8.50;99.90;;;;;;5031893;28;20838;-71
2021/11/12 16:50:45;;;;;;;12.50;5.07;;;8.50;99.90;;;;;;5031594;28;20435;-70
2021/11/12 16:58:45;;;;;;;7.13;5.47;;;8.50;99.90;;;;;;5030405;28;20947;-72
2021/11/12 17:04:00;;;;;;;11.97;4.33;;;8.50;99.90;;;;;;5032853;28;20417;-70
2021/11/12 17:11:44;;;;;;;6.97;4.93;;;8.50;99.90;;;;;;5030754;28;20462;-71
2021/11/12 17:19:19;;;;;;;8.70;5.37;;;8.50;99.90;;;;;;5031350;28;20209;-71
2021/11/12 17:48:48;;;;;;;9.60;5.43;;;8.40;99.90;;;;;;5012627;28;20508;-71
2021/11/12 18:01:35;;;;;;;8.50;5.30;;;8.40;99.90;;;;;;5032074;28;20422;-71
2021/11/12 18:02:34;;;;;;;8.37;6.17;;;8.30;99.90;;;;;;5023252;28;20426;-70
2021/11/12 18:05:20;;;;;;;10.13;5.93;;;8.20;99.90;;;;;;5029204;28;20484;-70
2021/11/12 18:08:25;;;;;;;10.10;5.40;;;8.10;99.90;;;;;;5031411;28;20461;-71
2021/11/12 18:22:12;;;;;;;12.60;6.33;;;7.90;99.90;;;;;;5012722;28;20534;-70
2021/11/12 21:46:34;;;;;;;25.47;11.23;;;5.10;99.90;;;;;;5032592;28;20862;-70
2021/11/12 21:49:01;;;;;;;22.73;11.77;;;5.10;99.90;;;;;;5031574;28;20184;-70
2021/11/12 21:51:29;;;;;;;15.33;8.60;;;5.10;99.90;;;;;;5017068;28;20502;-69
2021/11/12 21:53:58;;;;;;;29.47;11.97;;;5.00;99.90;;;;;;5012488;28;20407;-69
2021/11/12 21:56:24;;;;;;;23.27;12.50;;;5.00;99.90;;;;;;5018738;28;20501;-69